Página principal
METAR-TAF:

METAR-TAF

Aeroportos :

Tatalina, Alasca, Estados Unidos

latitude: 62-54N, longitude: 155-59W, altura: 294 m

Observação actual do tempo

O boletim foi feito há 1 hora e 5 minutos, às 16:55 UTC
Vento calmo
Temperatura 14°C
Humidade 67%
Pressão 1017 hPa
Visibilidade: 16.1 km
Poucas nuvensa uma altura de 17000 ft

METAR: PATL 201655Z AUTO 00000KT 10SM FEW170 14/08 A3002 RMK AO2 SLP161 T01410075

Hora: 10:00 (18:00 UTC)


TAF: em falta

Observações e previsões do tempo de mais de 4000 aeroportos (mensagens METAR e TAF).

As estações disponíveis são os pontos amarelos e vermelhos sobre o mapa.

Mova o rato sobre o mapa para ver o nome da estação.

Depois clique no ponto para visualizar as observações e previsões meteorológicas.

Para alterar o mapa : clique nos botões verdes com uma cruz preta para aumentar o zoom; no botão verde com uma pitada de zoom; ou nas setas verdes para mapas adjacentes.


METAR-TAF: